Time;durP1;ratioP1;P1;durP2;ratioP2;P2;SDS_P1;SDS_P2;PMS_P1;PMS_P2;Temp;Humidity;BMP_temperature;BMP_pressure;BME280_temperature;BME280_humidity;BME280_pressure;Samples;Min_cycle;Max_cycle;Signal;HPM_P1;HPM_P2
2021/04/26 00:01:15;;;;;;;7.20;3.85;;;;;;;1.98;61.57;95708.78;5050009;28;20045;-69
2021/04/26 00:03:41;;;;;;;12.50;4.35;;;;;;;1.87;61.88;95698.09;5044094;28;20036;-69
2021/04/26 00:06:06;;;;;;;9.80;4.20;;;;;;;1.93;61.62;95695.66;5043711;28;20064;-70
2021/04/26 00:08:32;;;;;;;10.20;4.10;;;;;;;1.86;62.63;95701.69;5049099;28;20052;-69
2021/04/26 00:10:58;;;;;;;9.05;4.15;;;;;;;1.93;62.15;95695.66;5040945;28;20041;-69
2021/04/26 00:13:24;;;;;;;7.68;3.97;;;;;;;1.86;62.29;95691.28;5048770;28;20045;-69
2021/04/26 00:15:50;;;;;;;8.93;4.32;;;;;;;1.90;62.19;95682.09;5031304;28;20050;-69
2021/04/26 00:18:15;;;;;;;10.38;4.40;;;;;;;2.11;62.25;95672.34;5030691;28;20198;-68
2021/04/26 00:20:42;;;;;;;10.15;4.85;;;;;;;2.19;61.75;95673.91;5031523;28;20045;-69
2021/04/26 00:23:08;;;;;;;10.45;4.68;;;;;;;2.21;62.30;95667.50;5045765;28;20063;-69
2021/04/26 00:25:34;;;;;;;10.07;4.90;;;;;;;2.47;61.49;95660.50;5040620;28;20041;-69
2021/04/26 00:28:00;;;;;;;13.45;5.28;;;;;;;2.71;61.15;95655.44;5031334;28;20038;-69
2021/04/26 00:30:26;;;;;;;11.32;4.82;;;;;;;3.21;58.70;95646.69;5033079;28;20057;-69
2021/04/26 00:32:52;;;;;;;10.65;5.15;;;;;;;3.27;58.35;95638.00;5035261;28;20040;-69
2021/04/26 00:35:18;;;;;;;12.38;5.10;;;;;;;3.39;57.96;95630.25;5037753;28;20048;-69
2021/04/26 00:37:46;;;;;;;9.63;4.80;;;;;;;3.49;57.28;95620.09;5041472;28;20033;-69
2021/04/26 00:40:13;;;;;;;10.52;5.10;;;;;;;3.78;56.44;95628.13;5049384;28;20042;-69
2021/04/26 00:42:40;;;;;;;9.65;5.25;;;;;;;4.03;55.42;95619.34;5048548;28;20041;-69
2021/04/26 00:45:09;;;;;;;11.07;5.32;;;;;;;4.07;55.01;95615.28;5048909;28;20115;-70
2021/04/26 00:47:36;;;;;;;11.50;5.32;;;;;;;4.16;54.62;95624.31;5044243;28;20425;-70
2021/04/26 00:50:05;;;;;;;9.38;5.35;;;;;;;3.96;55.68;95624.63;5031570;28;20045;-70
2021/04/26 00:52:31;;;;;;;13.57;4.88;;;;;;;3.97;55.13;95616.59;5046907;28;20045;-69
2021/04/26 00:54:57;;;;;;;11.93;5.30;;;;;;;3.95;56.23;95616.06;5044833;28;20044;-69
2021/04/26 00:57:23;;;;;;;13.45;5.28;;;;;;;3.89;55.79;95609.09;5044416;28;20041;-69
2021/04/26 00:59:48;;;;;;;10.85;5.50;;;;;;;3.71;56.94;95614.41;5051133;28;20098;-69
2021/04/26 01:02:14;;;;;;;11.77;5.32;;;;;;;3.62;56.73;95612.13;5033533;28;20056;-69
2021/04/26 01:04:39;;;;;;;9.82;5.15;;;;;;;3.64;56.17;95606.69;5041955;28;20345;-69
2021/04/26 01:07:05;;;;;;;11.68;5.15;;;;;;;3.53;57.51;95608.25;5033006;28;20782;-69
2021/04/26 01:09:31;;;;;;;11.70;5.57;;;;;;;3.51;57.59;95617.31;5030687;28;20045;-70
2021/04/26 01:12:18;;;;;;;10.23;5.32;;;;;;;3.58;57.77;95608.38;5030099;28;20403;-70
2021/04/26 01:15:07;;;;;;;12.80;5.88;;;;;;;3.67;57.41;95605.47;5031485;28;20503;-70
2021/04/26 01:17:40;;;;;;;10.32;5.53;;;;;;;3.48;57.79;95597.72;5044245;28;20037;-70
2021/04/26 01:20:27;;;;;;;11.57;5.68;;;;;;;3.55;57.57;95595.00;5042651;28;20080;-70
2021/04/26 01:23:30;;;;;;;12.88;5.47;;;;;;;3.45;57.78;95598.16;5033238;28;20045;-70
2021/04/26 01:25:57;;;;;;;11.63;5.70;;;;;;;3.43;58.41;95595.78;5037457;28;20045;-70
2021/04/26 01:28:35;;;;;;;12.07;5.72;;;;;;;3.36;58.76;95589.88;5032947;28;20149;-70
2021/04/26 01:31:11;;;;;;;12.18;6.05;;;;;;;3.34;58.60;95586.69;5050557;28;20052;-69
2021/04/26 01:33:47;;;;;;;10.95;6.00;;;;;;;3.31;59.21;95587.16;5037983;28;20048;-69
2021/04/26 01:36:20;;;;;;;8.90;5.25;;;;;;;3.25;59.20;95583.63;5029458;28;20122;-70
2021/04/26 01:38:47;;;;;;;12.13;6.13;;;;;;;3.19;59.30;95584.50;5031290;28;20406;-69
2021/04/26 01:41:14;;;;;;;12.77;5.90;;;;;;;3.11;60.12;95577.00;5043991;28;20048;-70
2021/04/26 01:43:41;;;;;;;14.52;6.30;;;;;;;3.03;60.53;95580.72;5047708;28;20037;-70
2021/04/26 01:46:10;;;;;;;11.60;6.20;;;;;;;3.04;60.89;95579.69;5045155;28;20048;-69
2021/04/26 01:48:41;;;;;;;14.32;6.32;;;;;;;3.03;61.05;95574.69;5036521;28;20040;-69
2021/04/26 01:51:08;;;;;;;11.40;5.28;;;;;;;2.98;60.83;95571.97;5033150;28;20041;-69
2021/04/26 01:53:34;;;;;;;13.00;6.10;;;;;;;2.92;61.27;95574.44;5032490;28;20057;-70
2021/04/26 01:56:04;;;;;;;12.75;6.15;;;;;;;2.95;61.29;95574.00;5030287;28;20070;-70
2021/04/26 01:58:31;;;;;;;11.27;5.90;;;;;;;2.92;61.05;95569.25;5030826;28;20045;-69
2021/04/26 02:00:57;;;;;;;15.73;6.00;;;;;;;2.90;61.06;95571.28;5030219;28;20038;-69
2021/04/26 02:03:26;;;;;;;10.73;5.38;;;;;;;2.89;61.21;95574.88;5030753;28;20045;-69
2021/04/26 02:05:55;;;;;;;12.18;6.55;;;;;;;2.76;61.44;95569.84;5033090;28;20034;-69
2021/04/26 02:08:22;;;;;;;9.95;5.32;;;;;;;2.79;61.29;95569.41;5041150;28;20090;-69
2021/04/26 02:10:48;;;;;;;10.40;5.57;;;;;;;2.75;61.84;95563.06;5039517;28;20069;-69
2021/04/26 02:13:19;;;;;;;12.45;6.00;;;;;;;2.63;61.90;95564.78;5029250;28;20094;-68
2021/04/26 02:15:47;;;;;;;11.80;5.63;;;;;;;2.49;62.87;95570.13;5037279;28;20045;-69
2021/04/26 02:18:13;;;;;;;10.27;5.22;;;;;;;2.37;62.76;95561.47;5042372;28;20053;-69
2021/04/26 02:20:39;;;;;;;10.55;5.47;;;;;;;2.30;63.28;95566.75;5050631;28;20045;-69
2021/04/26 02:23:05;;;;;;;11.05;5.82;;;;;;;2.27;63.03;95561.16;5053274;28;20049;-68
2021/04/26 02:25:31;;;;;;;11.07;5.35;;;;;;;2.31;62.86;95567.53;5042959;28;20041;-68
2021/04/26 02:27:56;;;;;;;10.73;5.22;;;;;;;2.23;63.04;95582.38;5053463;28;20502;-68
2021/04/26 02:30:22;;;;;;;10.50;5.60;;;;;;;2.15;63.50;95582.66;5053258;28;20048;-69
2021/04/26 02:32:51;;;;;;;11.93;6.18;;;;;;;2.09;63.68;95580.91;5053964;28;20041;-68
2021/04/26 02:35:26;;;;;;;9.68;5.43;;;;;;;2.13;63.44;95576.88;5036110;28;20041;-69
2021/04/26 02:38:17;;;;;;;10.23;5.63;;;;;;;1.99;65.08;95567.63;5040128;28;20450;-69
2021/04/26 02:40:46;;;;;;;12.65;6.55;;;;;;;1.88;65.03;95569.91;5038442;28;20068;-69
2021/04/26 02:43:13;;;;;;;14.57;5.95;;;;;;;1.85;65.07;95559.16;5034490;28;20045;-69
2021/04/26 02:45:44;;;;;;;11.45;5.97;;;;;;;1.83;65.27;95561.97;5033411;28;20046;-68
2021/04/26 02:48:11;;;;;;;13.50;5.80;;;;;;;1.75;65.83;95549.25;5035042;28;20041;-68
2021/04/26 02:50:36;;;;;;;14.85;6.35;;;;;;;1.79;65.32;95550.41;5033320;28;20494;-68
2021/04/26 02:53:03;;;;;;;11.38;5.63;;;;;;;1.66;65.50;95540.16;5052912;28;20045;-68
2021/04/26 02:55:31;;;;;;;13.48;6.35;;;;;;;1.60;65.99;95544.38;5047296;28;20456;-69
2021/04/26 02:57:57;;;;;;;10.15;5.68;;;;;;;1.49;66.30;95545.84;5051517;28;20045;-68
2021/04/26 03:00:24;;;;;;;10.18;5.78;;;;;;;1.42;66.05;95529.53;5040295;28;20037;-68
2021/04/26 03:02:51;;;;;;;15.45;6.10;;;;;;;1.32;67.60;95531.81;5050052;28;20052;-68
2021/04/26 03:05:17;;;;;;;13.00;6.30;;;;;;;1.40;67.92;95521.19;5039360;28;20117;-68
2021/04/26 03:07:43;;;;;;;13.65;6.53;;;;;;;1.55;67.12;95524.28;5032767;28;20037;-69
2021/04/26 03:10:14;;;;;;;13.95;6.43;;;;;;;1.53;66.40;95521.09;5033118;28;20048;-68
2021/04/26 03:12:42;;;;;;;15.90;6.25;;;;;;;1.44;66.45;95516.38;5033229;28;20045;-68
2021/04/26 03:15:12;;;;;;;14.65;6.05;;;;;;;1.40;66.75;95510.03;5032787;28;20041;-68
2021/04/26 03:17:39;;;;;;;17.23;6.50;;;;;;;1.40;67.54;95516.00;5044501;28;20730;-68
2021/04/26 03:20:09;;;;;;;11.98;6.13;;;;;;;1.35;67.99;95513.25;5034035;28;20045;-69
2021/04/26 03:22:35;;;;;;;15.48;7.20;;;;;;;1.38;68.36;95507.66;5050885;28;20040;-68
2021/04/26 03:25:00;;;;;;;13.80;7.00;;;;;;;1.48;68.02;95502.78;5051801;28;20044;-68
2021/04/26 03:27:27;;;;;;;13.02;6.68;;;;;;;1.66;67.34;95493.47;5032970;28;20068;-68
2021/04/26 03:29:54;;;;;;;12.93;6.63;;;;;;;1.78;66.64;95496.97;5032423;28;20041;-68
2021/04/26 03:32:21;;;;;;;12.77;6.13;;;;;;;1.68;66.36;95496.63;5032621;28;20037;-68
2021/04/26 03:34:47;;;;;;;13.27;7.30;;;;;;;1.56;67.20;95489.53;5042833;28;20056;-68
2021/04/26 03:37:15;;;;;;;14.13;6.18;;;;;;;1.51;67.28;95489.41;5038083;28;20045;-69
2021/04/26 03:39:42;;;;;;;15.27;6.50;;;;;;;1.47;67.09;95496.00;5052479;28;20047;-68
2021/04/26 03:42:08;;;;;;;15.43;6.90;;;;;;;1.32;67.74;95493.75;5046589;28;20052;-68
2021/04/26 03:44:33;;;;;;;13.35;6.30;;;;;;;1.37;67.32;95500.88;5047853;28;20041;-68
2021/04/26 03:47:01;;;;;;;11.52;6.00;;;;;;;1.24;67.57;95491.41;5035606;28;20045;-68
2021/04/26 03:49:27;;;;;;;14.50;6.30;;;;;;;1.25;67.98;95499.97;5046601;28;20049;-69
2021/04/26 03:51:53;;;;;;;15.43;6.72;;;;;;;1.17;68.47;95490.66;5043402;28;20452;-68
2021/04/26 03:54:19;;;;;;;11.43;6.15;;;;;;;1.13;68.49;95499.84;5033376;28;20060;-68
2021/04/26 03:56:45;;;;;;;12.93;6.03;;;;;;;1.15;68.70;95498.63;5040651;28;20076;-68
2021/04/26 03:59:11;;;;;;;12.13;6.78;;;;;;;0.96;70.27;95491.78;5051233;28;20045;-68
2021/04/26 04:01:36;;;;;;;16.15;6.78;;;;;;;0.99;70.78;95483.56;5042013;28;20048;-69
2021/04/26 04:04:04;;;;;;;13.00;6.80;;;;;;;1.09;70.25;95481.31;5043308;28;20041;-69
2021/04/26 04:06:31;;;;;;;15.70;7.18;;;;;;;1.25;69.59;95471.44;5051120;28;20041;-68
2021/04/26 04:08:58;;;;;;;18.15;7.72;;;;;;;1.46;68.34;95468.47;5042228;28;20044;-68
2021/04/26 04:11:24;;;;;;;14.07;7.35;;;;;;;1.48;68.29;95466.47;5031742;28;20064;-68
2021/04/26 04:13:50;;;;;;;19.58;7.88;;;;;;;1.46;68.43;95463.28;5031996;28;20487;-68
2021/04/26 04:16:16;;;;;;;16.30;6.90;;;;;;;1.38;68.51;95456.59;5031764;28;20445;-68
2021/04/26 04:18:41;;;;;;;16.92;7.10;;;;;;;1.35;68.26;95466.56;5048554;28;20045;-68
2021/04/26 04:21:07;;;;;;;13.35;6.68;;;;;;;1.31;68.84;95478.41;5050514;28;20037;-68
2021/04/26 04:23:32;;;;;;;20.58;7.20;;;;;;;1.30;68.70;95475.00;5031607;28;20419;-68
2021/04/26 04:25:58;;;;;;;14.13;6.90;;;;;;;1.30;68.83;95479.38;5040228;28;20036;-69
2021/04/26 04:28:23;;;;;;;14.63;6.85;;;;;;;1.40;68.33;95482.28;5042817;28;20049;-68
2021/04/26 04:30:49;;;;;;;17.42;6.75;;;;;;;1.35;68.36;95492.50;5031829;28;20458;-68
2021/04/26 04:33:15;;;;;;;19.50;7.53;;;;;;;1.40;69.14;95484.88;5045192;28;20056;-68
2021/04/26 04:35:41;;;;;;;20.08;7.93;;;;;;;1.56;68.58;95489.53;5039370;28;20048;-68
2021/04/26 04:38:06;;;;;;;18.27;8.10;;;;;;;1.61;68.25;95485.50;5031383;28;20037;-69
2021/04/26 04:40:32;;;;;;;14.88;7.45;;;;;;;1.64;67.43;95490.28;5044492;28;20033;-68
2021/04/26 04:42:58;;;;;;;22.25;7.97;;;;;;;1.73;67.56;95483.81;5040613;28;20122;-68
2021/04/26 04:45:23;;;;;;;16.58;7.97;;;;;;;1.69;68.30;95493.03;5030839;28;20491;-68
2021/04/26 04:47:49;;;;;;;15.45;7.45;;;;;;;1.75;67.32;95497.34;5046813;28;20041;-68
2021/04/26 04:50:14;;;;;;;21.40;7.72;;;;;;;1.73;67.17;95500.16;5030447;28;20041;-68
2021/04/26 04:52:40;;;;;;;16.52;7.65;;;;;;;1.72;67.87;95503.78;5042106;28;20491;-69
2021/04/26 04:55:07;;;;;;;16.52;7.80;;;;;;;1.79;67.39;95508.91;5030315;28;20419;-68
2021/04/26 04:57:32;;;;;;;20.00;8.30;;;;;;;1.88;67.24;95499.84;5035497;28;20041;-68
2021/04/26 04:59:58;;;;;;;25.10;8.48;;;;;;;1.95;67.29;95501.56;5042319;28;20048;-68
2021/04/26 05:02:23;;;;;;;18.15;8.02;;;;;;;2.09;65.80;95487.44;5048832;28;20033;-68
2021/04/26 05:04:49;;;;;;;21.15;7.57;;;;;;;2.17;65.69;95488.97;5040832;28;20042;-68
2021/04/26 05:07:15;;;;;;;19.55;7.93;;;;;;;2.18;65.87;95486.16;5029965;28;20510;-68
2021/04/26 05:09:40;;;;;;;15.90;7.80;;;;;;;2.13;65.70;95488.63;5030901;28;20067;-68
2021/04/26 05:12:06;;;;;;;16.92;7.18;;;;;;;2.24;64.66;95485.31;5030825;28;20034;-68
2021/04/26 05:14:32;;;;;;;16.63;7.38;;;;;;;2.40;63.68;95488.31;5030662;28;20100;-67
2021/04/26 05:16:57;;;;;;;13.25;6.57;;;;;;;2.50;63.17;95488.59;5029925;28;20037;-68
2021/04/26 05:19:24;;;;;;;15.02;7.47;;;;;;;2.51;63.73;95484.97;5030662;28;20080;-68
2021/04/26 05:21:50;;;;;;;12.27;7.05;;;;;;;2.50;63.07;95480.81;5046317;28;20048;-68
2021/04/26 05:24:15;;;;;;;13.38;7.45;;;;;;;2.59;63.04;95483.91;5030445;28;20049;-68
2021/04/26 05:26:41;;;;;;;15.13;7.57;;;;;;;2.58;63.42;95477.88;5030234;28;20038;-68
2021/04/26 05:29:06;;;;;;;12.88;6.75;;;;;;;2.70;61.87;95471.94;5045584;28;20048;-68
2021/04/26 05:31:32;;;;;;;16.70;7.22;;;;;;;2.78;61.80;95476.84;5050474;28;20051;-69
2021/04/26 05:33:57;;;;;;;13.25;6.95;;;;;;;2.84;60.85;95473.34;5033770;28;20041;-68
2021/04/26 05:36:23;;;;;;;22.50;7.25;;;;;;;2.88;61.76;95471.91;5030674;28;20060;-68
2021/04/26 05:38:49;;;;;;;12.27;6.85;;;;;;;2.92;61.70;95475.66;5043617;28;20037;-68
2021/04/26 05:41:14;;;;;;;13.35;6.85;;;;;;;2.80;62.90;95467.00;5038686;28;20038;-68
2021/04/26 05:43:40;;;;;;;12.68;6.53;;;;;;;2.87;61.75;95475.50;5043959;28;20060;-68
2021/04/26 05:46:06;;;;;;;13.07;6.75;;;;;;;3.17;60.44;95472.09;5030663;28;20395;-68
2021/04/26 05:48:31;;;;;;;16.58;7.07;;;;;;;3.26;60.09;95472.56;5042045;28;20044;-68
2021/04/26 05:50:57;;;;;;;15.65;6.68;;;;;;;3.35;59.75;95478.22;5031909;28;20076;-67
2021/04/26 05:53:23;;;;;;;16.15;6.97;;;;;;;3.34;59.87;95467.03;5040195;28;20507;-67
2021/04/26 05:55:49;;;;;;;13.45;6.85;;;;;;;3.52;59.09;95468.78;5042242;28;20108;-69
2021/04/26 05:58:15;;;;;;;12.98;6.60;;;;;;;3.50;58.87;95470.78;5045040;28;20060;-70
2021/04/26 06:00:40;;;;;;;12.80;6.60;;;;;;;3.51;59.61;95472.38;5038898;28;20042;-70
2021/04/26 06:03:06;;;;;;;13.95;7.10;;;;;;;3.72;59.27;95470.22;5035013;28;20041;-70
2021/04/26 06:05:32;;;;;;;14.40;6.93;;;;;;;3.69;57.43;95478.50;5046936;28;20083;-69
2021/04/26 06:07:59;;;;;;;13.38;7.13;;;;;;;3.72;58.78;95478.03;5050426;28;20051;-69
2021/04/26 06:10:25;;;;;;;15.35;7.50;;;;;;;3.89;57.63;95473.72;5041181;28;20044;-69
2021/04/26 06:12:51;;;;;;;12.85;6.43;;;;;;;3.93;57.70;95474.84;5047687;28;20418;-69
2021/04/26 06:15:16;;;;;;;20.15;7.10;;;;;;;3.94;56.04;95473.84;5038820;28;20041;-70
2021/04/26 06:17:42;;;;;;;10.57;5.93;;;;;;;4.03;56.64;95473.50;5037823;28;20089;-69
2021/04/26 06:20:08;;;;;;;12.10;6.20;;;;;;;4.25;56.46;95477.09;5042887;28;20087;-69
2021/04/26 06:22:34;;;;;;;11.32;6.55;;;;;;;4.21;56.54;95470.75;5054277;28;20406;-69
2021/04/26 06:24:59;;;;;;;13.77;7.30;;;;;;;4.17;57.11;95472.25;5053994;28;20049;-70
2021/04/26 06:27:25;;;;;;;16.73;6.45;;;;;;;4.44;56.32;95484.75;5048057;28;20047;-70
2021/04/26 06:29:50;;;;;;;12.85;6.38;;;;;;;4.62;55.11;95476.75;5052145;28;20096;-70
2021/04/26 06:32:16;;;;;;;12.23;6.25;;;;;;;4.85;54.48;95475.88;5044105;28;20037;-69
2021/04/26 06:34:41;;;;;;;15.40;6.65;;;;;;;4.95;54.74;95480.47;5033533;28;20045;-69
2021/04/26 06:37:07;;;;;;;12.70;6.75;;;;;;;4.81;55.42;95479.19;5040092;28;20505;-69
2021/04/26 06:39:32;;;;;;;14.05;6.90;;;;;;;4.91;55.38;95468.94;5043206;28;20091;-69
2021/04/26 06:42:00;;;;;;;15.85;6.68;;;;;;;4.77;55.17;95467.63;5048354;28;20403;-69
2021/04/26 06:44:26;;;;;;;14.93;6.55;;;;;;;4.94;54.71;95471.09;5048113;28;20052;-68
2021/04/26 06:46:52;;;;;;;14.25;6.28;;;;;;;4.88;55.01;95464.19;5037980;28;20052;-69
2021/04/26 06:49:20;;;;;;;11.07;6.80;;;;;;;4.85;55.52;95469.88;5039220;28;20070;-68
2021/04/26 06:51:47;;;;;;;12.70;6.15;;;;;;;5.02;55.04;95468.09;5044766;28;20053;-69
2021/04/26 06:54:13;;;;;;;10.60;6.30;;;;;;;5.15;54.71;95468.84;5051998;28;20439;-69
2021/04/26 06:56:39;;;;;;;13.13;6.43;;;;;;;5.13;54.52;95465.66;5047712;28;20040;-69
2021/04/26 06:59:05;;;;;;;16.10;6.07;;;;;;;5.55;53.17;95467.91;5048849;28;20098;-68
2021/04/26 07:01:31;;;;;;;15.68;7.22;;;;;;;5.67;53.56;95460.75;5051097;28;20501;-69
2021/04/26 07:03:57;;;;;;;15.32;6.90;;;;;;;5.47;53.55;95465.69;5034781;28;20036;-69
2021/04/26 07:06:22;;;;;;;10.57;6.22;;;;;;;5.55;51.97;95462.69;5037471;28;20044;-69
2021/04/26 07:08:48;;;;;;;11.43;6.78;;;;;;;5.50;53.67;95459.97;5048185;28;20497;-69
2021/04/26 07:11:13;;;;;;;12.75;7.22;;;;;;;5.29;54.53;95458.88;5037181;28;20522;-69
2021/04/26 07:13:39;;;;;;;11.63;6.38;;;;;;;5.30;54.51;95461.25;5047839;28;20499;-69
2021/04/26 07:16:05;;;;;;;11.30;6.65;;;;;;;5.33;53.71;95468.59;5031910;28;20491;-69
2021/04/26 07:18:31;;;;;;;14.45;7.32;;;;;;;5.35;53.72;95466.53;5038105;28;20065;-68
2021/04/26 07:20:56;;;;;;;20.15;7.00;;;;;;;5.44;53.15;95474.00;5037788;28;20111;-69
2021/04/26 07:23:22;;;;;;;17.05;6.40;;;;;;;5.53;52.85;95460.31;5049681;28;20486;-69
2021/04/26 07:25:47;;;;;;;17.55;6.78;;;;;;;5.63;52.83;95467.50;5041146;28;20479;-69
2021/04/26 07:28:14;;;;;;;22.02;6.47;;;;;;;5.62;52.66;95467.75;5037487;28;20516;-70
2021/04/26 07:30:39;;;;;;;19.17;6.50;;;;;;;5.89;52.22;95478.31;5041990;28;20055;-69
2021/04/26 07:33:05;;;;;;;14.48;6.50;;;;;;;6.00;51.66;95463.59;5042290;28;20127;-69
2021/04/26 07:35:32;;;;;;;16.52;6.90;;;;;;;6.10;51.25;95462.94;5048440;28;20037;-69
2021/04/26 07:37:57;;;;;;;14.02;6.43;;;;;;;6.12;50.58;95466.09;5038325;28;20060;-69
2021/04/26 07:40:23;;;;;;;17.90;6.72;;;;;;;6.28;50.68;95465.28;5048097;28;20037;-70
2021/04/26 07:42:49;;;;;;;14.73;6.63;;;;;;;6.32;50.26;95466.38;5050181;28;20068;-70
2021/04/26 07:45:23;;;;;;;12.65;6.07;;;;;;;6.36;50.22;95472.66;5039399;28;20037;-68
2021/04/26 07:47:52;;;;;;;16.42;6.50;;;;;;;6.28;50.14;95467.88;5034515;28;20034;-68
2021/04/26 07:50:18;;;;;;;15.25;6.90;;;;;;;6.48;49.56;95466.53;5032310;28;20048;-69
2021/04/26 07:52:43;;;;;;;14.57;6.30;;;;;;;6.51;49.25;95471.28;5032415;28;20041;-69
2021/04/26 07:55:10;;;;;;;13.68;6.45;;;;;;;6.61;49.48;95471.41;5043812;28;20509;-69
2021/04/26 07:57:36;;;;;;;11.82;6.10;;;;;;;6.56;49.81;95477.34;5049028;28;20040;-69
2021/04/26 08:00:03;;;;;;;16.00;6.85;;;;;;;6.73;49.13;95472.03;5051174;28;20095;-69
2021/04/26 08:02:29;;;;;;;10.68;5.75;;;;;;;6.73;49.53;95477.28;5033271;28;20057;-69
2021/04/26 08:04:54;;;;;;;14.45;5.93;;;;;;;7.04;47.88;95482.84;5036081;28;20045;-67
2021/04/26 08:07:20;;;;;;;12.65;6.15;;;;;;;7.12;49.75;95473.75;5031116;28;20096;-69
2021/04/26 08:09:46;;;;;;;13.60;6.47;;;;;;;6.99;47.79;95469.69;5037031;28;20449;-69
2021/04/26 08:12:12;;;;;;;14.07;6.47;;;;;;;7.10;47.88;95471.38;5032686;28;20041;-69
2021/04/26 08:14:37;;;;;;;19.40;7.05;;;;;;;7.16;48.12;95460.97;5032990;28;20052;-70
2021/04/26 08:17:03;;;;;;;14.10;7.18;;;;;;;7.25;47.88;95462.06;5035296;28;20052;-70
2021/04/26 08:19:28;;;;;;;15.07;6.78;;;;;;;7.44;46.94;95465.91;5044187;28;20083;-68
2021/04/26 08:21:54;;;;;;;14.13;6.40;;;;;;;7.48;47.25;95465.41;5049960;28;20049;-68
2021/04/26 08:24:20;;;;;;;14.13;6.13;;;;;;;7.52;45.47;95461.25;5046497;28;20038;-68
2021/04/26 08:26:45;;;;;;;13.73;5.88;;;;;;;7.69;45.58;95461.91;5035251;28;20053;-69
2021/04/26 08:29:11;;;;;;;15.20;6.43;;;;;;;7.97;46.04;95462.56;5030521;28;20551;-69
2021/04/26 08:31:37;;;;;;;15.30;6.03;;;;;;;8.32;44.02;95464.59;5031793;28;20049;-69
2021/04/26 08:34:03;;;;;;;10.98;5.60;;;;;;;8.37;43.10;95455.97;5031122;28;20042;-69
2021/04/26 08:36:28;;;;;;;10.43;5.78;;;;;;;8.30;43.45;95460.66;5034914;28;20526;-68
2021/04/26 08:38:54;;;;;;;9.77;5.47;;;;;;;8.29;44.30;95453.84;5037270;28;20037;-69
2021/04/26 08:41:19;;;;;;;9.20;5.70;;;;;;;8.46;42.97;95443.16;5046506;28;20037;-69
2021/04/26 08:43:46;;;;;;;13.85;6.38;;;;;;;8.43;42.88;95449.72;5040607;28;20052;-69
2021/04/26 08:46:12;;;;;;;16.48;7.03;;;;;;;8.61;42.89;95456.34;5048475;28;20083;-70
2021/04/26 08:48:38;;;;;;;12.65;6.63;;;;;;;8.62;43.22;95454.50;5035087;28;20041;-68
2021/04/26 08:51:05;;;;;;;14.23;6.65;;;;;;;8.70;43.52;95456.63;5031268;28;20049;-68
2021/04/26 08:53:31;;;;;;;14.32;6.68;;;;;;;8.59;44.29;95453.19;5029335;28;20052;-67
2021/04/26 08:55:57;;;;;;;12.73;7.20;;;;;;;8.62;44.66;95449.25;5034756;28;20435;-68
2021/04/26 08:58:22;;;;;;;18.10;7.25;;;;;;;8.80;44.96;95458.50;5037356;28;20044;-66
2021/04/26 09:00:48;;;;;;;13.38;6.55;;;;;;;8.92;44.28;95451.19;5045507;28;20048;-67
2021/04/26 09:03:14;;;;;;;12.73;6.22;;;;;;;9.16;43.91;95451.47;5034445;28;20060;-67
2021/04/26 09:05:43;;;;;;;19.20;7.30;;;;;;;9.13;43.71;95452.00;5040100;28;20502;-68
2021/04/26 09:08:12;;;;;;;19.52;7.05;;;;;;;9.16;43.04;95455.94;5036204;28;20465;-67
2021/04/26 09:10:44;;;;;;;14.68;7.35;;;;;;;9.26;43.69;95449.91;5038785;28;20560;-67
2021/04/26 09:13:33;;;;;;;12.93;7.22;;;;;;;9.32;42.83;95440.97;5048223;28;20123;-68
2021/04/26 09:16:24;;;;;;;13.82;6.95;;;;;;;9.45;43.30;95448.34;5043807;28;20037;-67
2021/04/26 09:18:49;;;;;;;15.43;7.15;;;;;;;9.59;42.51;95447.81;5044938;28;20112;-66
2021/04/26 09:21:25;;;;;;;11.02;6.68;;;;;;;9.44;42.60;95451.22;5043755;28;20242;-67
2021/04/26 09:24:25;;;;;;;16.23;7.28;;;;;;;9.64;41.19;95453.03;5044596;28;20038;-67
2021/04/26 09:26:51;;;;;;;9.82;6.05;;;;;;;9.85;40.76;95444.06;5041499;28;20149;-67
2021/04/26 09:29:25;;;;;;;11.32;6.03;;;;;;;10.01;39.43;95455.38;5039511;28;20061;-68
2021/04/26 09:32:06;;;;;;;18.50;6.18;;;;;;;10.29;39.36;95439.25;5038136;28;20041;-67
2021/04/26 09:34:51;;;;;;;11.27;5.85;;;;;;;10.62;39.11;95437.03;5038515;28;20381;-68
2021/04/26 09:37:17;;;;;;;15.70;6.20;;;;;;;10.58;38.33;95445.47;5040715;28;20052;-68
2021/04/26 09:40:03;;;;;;;24.48;6.60;;;;;;;10.37;38.33;95431.63;5042567;28;20045;-68
2021/04/26 09:42:35;;;;;;;12.63;6.22;;;;;;;10.49;39.02;95438.41;5046118;28;20048;-68
2021/04/26 09:45:21;;;;;;;13.48;5.93;;;;;;;10.81;38.54;95435.34;5042735;28;20068;-68
2021/04/26 09:47:51;;;;;;;14.45;5.93;;;;;;;10.89;37.75;95421.63;5039242;28;20037;-68
2021/04/26 09:50:16;;;;;;;15.82;6.32;;;;;;;11.05;36.17;95424.16;5042302;28;20045;-68
2021/04/26 09:52:42;;;;;;;12.48;5.97;;;;;;;11.23;37.16;95420.06;5040230;28;20033;-69
2021/04/26 09:55:28;;;;;;;15.23;6.68;;;;;;;10.75;35.73;95420.66;5039937;28;20498;-70
2021/04/26 09:57:54;;;;;;;14.57;6.28;;;;;;;11.24;37.04;95411.88;5031298;28;20440;-69
2021/04/26 10:00:21;;;;;;;18.45;6.78;;;;;;;11.48;35.68;95416.44;5030741;28;20038;-69
2021/04/26 10:02:47;;;;;;;9.00;5.35;;;;;;;11.84;35.09;95418.75;5029245;28;20512;-70
2021/04/26 10:05:13;;;;;;;19.23;6.70;;;;;;;12.01;33.71;95412.25;5030808;28;20042;-70
2021/04/26 10:07:39;;;;;;;10.63;5.30;;;;;;;12.24;33.53;95408.84;5035462;28;20048;-70
2021/04/26 10:10:05;;;;;;;11.93;5.95;;;;;;;13.00;32.56;95411.56;5046352;28;20045;-69
2021/04/26 10:12:31;;;;;;;11.43;5.78;;;;;;;13.30;33.02;95406.88;5034918;28;20037;-70
2021/04/26 10:14:56;;;;;;;17.38;6.65;;;;;;;13.06;32.91;95403.53;5032185;28;20041;-68
2021/04/26 10:17:23;;;;;;;12.52;6.05;;;;;;;13.15;32.63;95401.81;5047452;28;20094;-69
2021/04/26 10:19:50;;;;;;;13.15;6.35;;;;;;;12.75;32.46;95396.06;5043571;28;20558;-69
2021/04/26 10:22:37;;;;;;;12.63;6.57;;;;;;;14.09;31.31;95396.56;5036444;28;20391;-70
2021/04/26 10:25:05;;;;;;;11.23;6.15;;;;;;;15.11;28.76;95398.94;5030811;28;20045;-69
2021/04/26 10:27:33;;;;;;;13.57;6.15;;;;;;;15.76;28.85;95397.63;5033770;28;20034;-68
2021/04/26 10:30:02;;;;;;;10.32;6.45;;;;;;;16.00;29.19;95396.50;5040382;28;20068;-70
2021/04/26 10:32:28;;;;;;;11.50;6.28;;;;;;;17.10;27.41;95399.22;5035608;28;20052;-70
2021/04/26 10:34:54;;;;;;;16.25;6.72;;;;;;;16.23;27.49;95393.78;5030112;28;20049;-69
2021/04/26 10:37:22;;;;;;;12.38;7.20;;;;;;;16.56;26.54;95390.72;5031178;28;20044;-69
2021/04/26 10:39:56;;;;;;;16.02;7.05;;;;;;;16.08;27.39;95387.78;5033396;28;20466;-69
2021/04/26 10:42:38;;;;;;;13.52;7.25;;;;;;;15.45;28.10;95381.69;5051366;28;20044;-68
2021/04/26 10:45:20;;;;;;;11.43;6.97;;;;;;;16.57;27.00;95371.03;5045308;28;20491;-69
2021/04/26 10:48:09;;;;;;;9.80;6.63;;;;;;;16.71;27.13;95377.00;5045336;28;20045;-68
2021/04/26 10:50:36;;;;;;;9.52;6.20;;;;;;;17.12;27.12;95381.09;5052766;28;20048;-70
2021/04/26 10:53:03;;;;;;;12.23;6.35;;;;;;;18.50;25.13;95374.88;5039989;28;20383;-71
2021/04/26 10:55:34;;;;;;;13.90;6.45;;;;;;;18.70;23.27;95361.88;5045458;28;20084;-70
2021/04/26 10:58:04;;;;;;;10.38;6.78;;;;;;;18.51;23.72;95363.09;5033844;28;20041;-69
2021/04/26 11:00:36;;;;;;;12.73;6.70;;;;;;;18.40;24.79;95351.25;5049232;28;20124;-69
2021/04/26 11:03:04;;;;;;;10.23;6.25;;;;;;;18.23;24.24;95354.00;5051566;28;20041;-68
2021/04/26 11:05:35;;;;;;;12.95;7.22;;;;;;;17.21;24.58;95345.72;5053787;28;20052;-69
2021/04/26 11:08:07;;;;;;;8.77;6.68;;;;;;;17.83;24.55;95350.56;5038254;28;20037;-68
2021/04/26 11:10:34;;;;;;;11.13;6.63;;;;;;;19.09;23.76;95333.19;5044016;28;20119;-70
2021/04/26 11:13:31;;;;;;;16.08;6.78;;;;;;;17.86;24.66;95340.38;5038588;28;20046;-68
2021/04/26 11:16:17;;;;;;;19.73;7.28;;;;;;;17.87;24.91;95336.63;5032168;28;20124;-69
2021/04/26 11:18:58;;;;;;;11.10;6.50;;;;;;;18.11;23.38;95342.16;5040243;28;20044;-68
2021/04/26 11:21:42;;;;;;;11.15;6.20;;;;;;;17.28;24.24;95338.06;5047452;28;20502;-69
2021/04/26 11:24:09;;;;;;;10.82;6.80;;;;;;;17.83;23.40;95334.59;5033089;28;20037;-69
2021/04/26 11:26:34;;;;;;;27.55;7.55;;;;;;;17.57;23.04;95336.56;5032205;28;20491;-69
2021/04/26 11:29:08;;;;;;;10.95;6.28;;;;;;;19.46;22.42;95324.53;5035813;28;20044;-69
2021/04/26 11:31:40;;;;;;;15.43;6.30;;;;;;;18.81;22.92;95325.72;5038861;28;20045;-69
2021/04/26 11:34:06;;;;;;;16.25;6.40;;;;;;;20.21;21.97;95326.94;5036408;28;20410;-69
2021/04/26 11:36:33;;;;;;;11.73;6.53;;;;;;;20.01;20.64;95322.47;5037355;28;20044;-69